Bessie Ellen — ZITL7 — position and weather

sailwx.info

Track history (hours):
 
Tides and Currents Weather Stations Pressure Air Temp Water Temp Dewpoint Dewpoint Depression Visibility Wind Speed Wind Dir Waves Ship Positions

Bessie Ellen

Ship's website: http://bessie-ellen.com/blog/

Last reported at 2017-Oct-22 08:48 UTC. Time now 2017-Oct-22 19:21 UTC.
Position N 47°47' W 004°01'.

Length 28 m.

Type: Sailing vessel. MMSI: 235005952.

Date/timePositionNaut miles runAvg speedWind from/ knotsBaromVisibWave heightAir tempDewpointWater temp
2017-Oct-22 08:48N 47°47' W 004°01'5 5.3
2017-Oct-22 07:53N 47°51' W 003°56'  
2017-Oct-18 06:41N 47°53' W 004°49'2 7.6
2017-Oct-18 06:29N 47°54' W 004°51'4 7.8
2017-Oct-18 06:00N 47°56' W 004°55'4 8.2
2017-Oct-18 05:28N 47°59' W 005°00'4 8.6
2017-Oct-18 05:00N 48°02' W 005°05'4 7.2
2017-Oct-18 04:31N 48°05' W 005°07'3 6.2
2017-Oct-18 03:59N 48°08' W 005°08'3 6.2
2017-Oct-18 03:29N 48°11' W 005°09'3 5.8
2017-Oct-18 02:58N 48°14' W 005°10'3 5.5
2017-Oct-18 02:27N 48°17' W 005°11'2 5.2
2017-Oct-18 02:00N 48°19' W 005°12'2 4.6
2017-Oct-18 01:30N 48°21' W 005°12'2 4.1
2017-Oct-18 00:56N 48°24' W 005°12'1 3.2
2017-Oct-18 00:30N 48°25' W 005°13'2 3.3
2017-Oct-17 23:55N 48°27' W 005°14'  
Track history (hours):
 
Tides and Currents Weather Stations Pressure Air Temp Water Temp Dewpoint Dewpoint Depression Visibility Wind Speed Wind Dir Waves Ship Positions

Bessie Ellen

Ship's website: http://bessie-ellen.com/blog/

Last reported at 2017-Oct-22 08:48 UTC. Time now 2017-Oct-22 19:21 UTC.
Position N 47°47' W 004°01'.

Length 28 m.

Type: Sailing vessel. MMSI: 235005952.

Date/timePositionNaut miles runAvg speedWind from/ knotsBaromVisibWave heightAir tempDewpointWater temp
2017-Oct-22 08:48N 47°47' W 004°01'5 5.3
2017-Oct-22 07:53N 47°51' W 003°56'  
2017-Oct-18 06:41N 47°53' W 004°49'2 7.6
2017-Oct-18 06:29N 47°54' W 004°51'4 7.8
2017-Oct-18 06:00N 47°56' W 004°55'4 8.2
2017-Oct-18 05:28N 47°59' W 005°00'4 8.6
2017-Oct-18 05:00N 48°02' W 005°05'4 7.2
2017-Oct-18 04:31N 48°05' W 005°07'3 6.2
2017-Oct-18 03:59N 48°08' W 005°08'3 6.2
2017-Oct-18 03:29N 48°11' W 005°09'3 5.8
2017-Oct-18 02:58N 48°14' W 005°10'3 5.5
2017-Oct-18 02:27N 48°17' W 005°11'2 5.2
2017-Oct-18 02:00N 48°19' W 005°12'2 4.6
2017-Oct-18 01:30N 48°21' W 005°12'2 4.1
2017-Oct-18 00:56N 48°24' W 005°12'1 3.2
2017-Oct-18 00:30N 48°25' W 005°13'2 3.3
2017-Oct-17 23:55N 48°27' W 005°14'  

Dump ship's entire track history